Strona główna
METAR-TAF:

METAR-TAF

Lotnisko :

Bagdad, Irak

Port lotniczy Bagdad

Szerokość geograficzna: 33-15-45N, Długość geograficzna: 44-14-04E, wysokość: 35 m

Aktualna obserwacja pogody

Raport powstał 8 minut temu, godzina 11:30 UTC
Wiatr 14 kt od południowo-południowy wschód
Temperatura 20°C
Wilgotność 35%
Ciśnienie 1014 hPa
Widzialność 10 km lub więcej
Brak chmur poniżej 1500 m i brak chmur cumulonimbus

METAR: ORBI 181130Z 15014KT CAVOK 20/04 Q1014

czas: 14:38 (11:38 UTC)

Prognoza

Raport powstał 6 godziny i 38 minut temu, godzina 05:00 UTC
Prognoza ważna od 18 godzina 06 UTC do 19 godzina 06 UTC
Wiatr 6 kt od wschodnio-południowy wschód
Widzialność: 8000 m
Rozproszone chmury na wysokości 3000 ft
Rozproszone chmury na wysokości 8000 ft

TAF: ORBI 180500Z 1806/1906 12006KT 8000 SCT030 SCT080

Obserwacja i prognoza pogody dla ponad 4000 lotnisk (raport METAR i TAF).

Dostępne stacje oznaczono żółtymi i czerwonymi punktami na mapie.

Najedź kursorem aby zobaczyć nazwę stacji.

Kliknij aby zobaczyć obserwacje i prognozy pogody.

Aby zmienić mapę: kliknij na zielony przycisk z czarnym krzyżykiem, aby powiększyć; na zielony przycisk z myślnikiem, aby pomniejszyć; na zielone strzałki, aby przejść do map sąsiednich.


METAR-TAF: